Haukur — OZ2119 — position and weather

sailwx.info

Track history (hours):
 
Tides and Currents Weather Stations Pressure Air Temp Water Temp Dewpoint Dewpoint Depression Visibility Wind Speed Wind Dir Waves Ship Positions

Haukur

Last reported at 2014-Jul-30 06:28 UTC. Time now 2014-Jul-30 07:13 UTC.
Position N 57°09' E 019°36'.

Length 75 m; draft 3.8 m.

Type: Cargo ship. MMSI: 231812000.

Date/timePositionNaut miles runAvg speedWind from/ knotsBaromVisibWave heightAir tempDewpointWater temp
2014-Jul-30 06:28N 57°09' E 019°36'1210.1
2014-Jul-30 05:19N 57°14' E 019°55'11 9.3
2014-Jul-30 04:09N 57°19' E 020°13'7 9.4
2014-Jul-30 03:24N 57°22' E 020°25'  
2014-Jul-27 04:32N 57°48' E 022°26'178 5.3
2014-Jul-25 19:17N 55°12' E 019°52'710.3
2014-Jul-25 18:33N 55°07' E 019°42'1010.2
2014-Jul-25 17:33N 55°00' E 019°29'1010.0
2014-Jul-25 16:33N 54°53' E 019°18'1010.3
2014-Jul-25 15:33N 54°45' E 019°06'1010.0
2014-Jul-25 14:33N 54°37' E 018°55'1010.2
2014-Jul-25 13:33N 54°29' E 018°44'6 6.0
2014-Jul-25 12:31N 54°23' E 018°40'0 0.0
2014-Jul-25 11:31N 54°23' E 018°40'0 0.0
2014-Jul-25 10:31N 54°23' E 018°40'0 0.0
2014-Jul-25 09:31N 54°23' E 018°40'0 0.0
2014-Jul-25 08:31N 54°23' E 018°40'0 0.0
2014-Jul-25 07:31N 54°23' E 018°40'0 0.0
2014-Jul-25 06:31N 54°23' E 018°40'0 0.0
2014-Jul-25 05:34N 54°23' E 018°40'0 0.0
2014-Jul-25 04:34N 54°23' E 018°40'0 0.0
2014-Jul-25 03:33N 54°23' E 018°40'0 0.0
2014-Jul-25 02:33N 54°23' E 018°40'0 0.0
2014-Jul-25 01:33N 54°23' E 018°40'0 0.0
2014-Jul-25 00:33N 54°23' E 018°40'0 0.0
2014-Jul-24 23:33N 54°23' E 018°40'0 0.0
2014-Jul-24 22:33N 54°23' E 018°40'0 0.0
2014-Jul-24 21:33N 54°23' E 018°40'0 0.0
2014-Jul-24 20:33N 54°23' E 018°40'0 0.0
2014-Jul-24 19:33N 54°23' E 018°40'0 0.0
2014-Jul-24 18:33N 54°23' E 018°40'0 0.0
2014-Jul-24 17:33N 54°23' E 018°40'0 0.0
2014-Jul-24 16:33N 54°23' E 018°40'0 0.0
2014-Jul-24 15:33N 54°23' E 018°40'5 4.6
2014-Jul-24 14:33N 54°28' E 018°42'9 9.2
2014-Jul-24 13:33N 54°35' E 018°52'7 7.3
2014-Jul-24 12:33N 54°42' E 018°51'9 8.7
2014-Jul-24 11:33N 54°47' E 018°39'8 8.1
2014-Jul-24 10:33N 54°51' E 018°27'8 8.2
2014-Jul-24 09:33N 54°54' E 018°14'9 8.7
2014-Jul-24 08:33N 54°57' E 017°59'9 8.9
2014-Jul-24 07:33N 54°59' E 017°44'9 9.0
2014-Jul-24 06:33N 55°01' E 017°29'9 9.0
2014-Jul-24 05:33N 55°03' E 017°13'9 9.2
2014-Jul-24 04:33N 55°06' E 016°58'9 9.3
2014-Jul-24 03:33N 55°08' E 016°42'9 9.3
2014-Jul-24 02:33N 55°10' E 016°26'9 9.2
2014-Jul-24 01:33N 55°13' E 016°11'9 9.1
2014-Jul-24 00:33N 55°15' E 015°55'9 9.0
2014-Jul-23 23:33N 55°17' E 015°40'9 9.0
2014-Jul-23 22:33N 55°19' E 015°25'9 9.0
2014-Jul-23 21:33N 55°22' E 015°09'9 9.0
2014-Jul-23 20:33N 55°23' E 014°54'9 8.7
2014-Jul-23 19:33N 55°22' E 014°38'9 9.3
2014-Jul-23 18:33N 55°15' E 014°27'9 8.7
2014-Jul-23 17:33N 55°10' E 014°15'18 8.9
2014-Jul-23 15:33N 55°12' E 013°44'9 8.7
2014-Jul-23 14:33N 55°13' E 013°29'9 8.9
2014-Jul-23 13:33N 55°14' E 013°13'9 8.8
2014-Jul-23 12:33N 55°15' E 012°58'9 8.7
2014-Jul-23 11:33N 55°17' E 012°43'7 7.4
2014-Jul-23 10:33N 55°24' E 012°39'9 9.1
2014-Jul-23 09:33N 55°33' E 012°42'9 9.3
2014-Jul-23 08:33N 55°42' E 012°41'9 8.8
2014-Jul-23 07:33N 55°51' E 012°39'9 9.0
2014-Jul-23 06:33N 55°60' E 012°38'8 7.6
2014-Jul-23 05:33N 56°07' E 012°32'9 9.3
2014-Jul-23 04:33N 56°12' E 012°18'10 9.8
2014-Jul-23 03:33N 56°18' E 012°04'9 9.1
2014-Jul-23 02:32N 56°27' E 011°60'8 7.8
2014-Jul-23 01:31N 56°35' E 011°56'8 8.2
2014-Jul-23 00:32N 56°42' E 011°53'8 8.3
2014-Jul-22 23:33N 56°50' E 011°49'9 9.0
2014-Jul-22 22:33N 56°59' E 011°43'9 8.5
2014-Jul-22 21:33N 57°07' E 011°38'8 8.2
2014-Jul-22 20:33N 57°14' E 011°33'9 8.6
2014-Jul-22 19:33N 57°23' E 011°28'8 8.4
2014-Jul-22 18:33N 57°30' E 011°20'9 8.9
2014-Jul-22 17:33N 57°36' E 011°08'9 9.4
2014-Jul-22 16:33N 57°42' E 010°55'9 8.9
2014-Jul-22 15:33N 57°47' E 010°41'9 9.3
2014-Jul-22 14:33N 57°46' E 010°23'9 9.3
2014-Jul-22 13:33N 57°46' E 010°06'10 9.7
2014-Jul-22 12:32N 57°45' E 009°48'12 9.4
2014-Jul-22 11:14N 57°45' E 009°25'26 9.7
2014-Jul-22 08:33N 57°43' E 008°36'9 8.8
2014-Jul-22 07:29N 57°43' E 008°18'10 8.6
2014-Jul-22 06:20N 57°42' E 007°60'7 8.9
2014-Jul-22 05:30N 57°42' E 007°46'8 8.7
2014-Jul-22 04:33N 57°42' E 007°30'52 8.3
2014-Jul-21 22:14N 58°00' E 005°58'6 8.9
2014-Jul-21 21:33N 58°04' E 005°49'10 9.5
2014-Jul-21 20:32N 58°11' E 005°36'2 9.6
2014-Jul-21 20:18N 58°12' E 005°33'7 9.6
2014-Jul-21 19:32N 58°17' E 005°22'28 8.8
2014-Jul-21 16:19N 58°42' E 004°58'7 8.4
2014-Jul-21 15:30N 58°49' E 004°54'8 8.7
2014-Jul-21 14:33N 58°56' E 004°47'9 8.7
2014-Jul-21 13:33N 59°04' E 004°41'8 7.9
2014-Jul-21 12:33N 59°12' E 004°37'  
Track history (hours):
 
Tides and Currents Weather Stations Pressure Air Temp Water Temp Dewpoint Dewpoint Depression Visibility Wind Speed Wind Dir Waves Ship Positions

Haukur

Last reported at 2014-Jul-30 06:28 UTC. Time now 2014-Jul-30 07:13 UTC.
Position N 57°09' E 019°36'.

Length 75 m; draft 3.8 m.

Type: Cargo ship. MMSI: 231812000.

Date/timePositionNaut miles runAvg speedWind from/ knotsBaromVisibWave heightAir tempDewpointWater temp
2014-Jul-30 06:28N 57°09' E 019°36'1210.1
2014-Jul-30 05:19N 57°14' E 019°55'11 9.3
2014-Jul-30 04:09N 57°19' E 020°13'7 9.4
2014-Jul-30 03:24N 57°22' E 020°25'  
2014-Jul-27 04:32N 57°48' E 022°26'178 5.3
2014-Jul-25 19:17N 55°12' E 019°52'710.3
2014-Jul-25 18:33N 55°07' E 019°42'1010.2
2014-Jul-25 17:33N 55°00' E 019°29'1010.0
2014-Jul-25 16:33N 54°53' E 019°18'1010.3
2014-Jul-25 15:33N 54°45' E 019°06'1010.0
2014-Jul-25 14:33N 54°37' E 018°55'1010.2
2014-Jul-25 13:33N 54°29' E 018°44'6 6.0
2014-Jul-25 12:31N 54°23' E 018°40'0 0.0
2014-Jul-25 11:31N 54°23' E 018°40'0 0.0
2014-Jul-25 10:31N 54°23' E 018°40'0 0.0
2014-Jul-25 09:31N 54°23' E 018°40'0 0.0
2014-Jul-25 08:31N 54°23' E 018°40'0 0.0
2014-Jul-25 07:31N 54°23' E 018°40'0 0.0
2014-Jul-25 06:31N 54°23' E 018°40'0 0.0
2014-Jul-25 05:34N 54°23' E 018°40'0 0.0
2014-Jul-25 04:34N 54°23' E 018°40'0 0.0
2014-Jul-25 03:33N 54°23' E 018°40'0 0.0
2014-Jul-25 02:33N 54°23' E 018°40'0 0.0
2014-Jul-25 01:33N 54°23' E 018°40'0 0.0
2014-Jul-25 00:33N 54°23' E 018°40'0 0.0
2014-Jul-24 23:33N 54°23' E 018°40'0 0.0
2014-Jul-24 22:33N 54°23' E 018°40'0 0.0
2014-Jul-24 21:33N 54°23' E 018°40'0 0.0
2014-Jul-24 20:33N 54°23' E 018°40'0 0.0
2014-Jul-24 19:33N 54°23' E 018°40'0 0.0
2014-Jul-24 18:33N 54°23' E 018°40'0 0.0
2014-Jul-24 17:33N 54°23' E 018°40'0 0.0
2014-Jul-24 16:33N 54°23' E 018°40'0 0.0
2014-Jul-24 15:33N 54°23' E 018°40'5 4.6
2014-Jul-24 14:33N 54°28' E 018°42'9 9.2
2014-Jul-24 13:33N 54°35' E 018°52'7 7.3
2014-Jul-24 12:33N 54°42' E 018°51'9 8.7
2014-Jul-24 11:33N 54°47' E 018°39'8 8.1
2014-Jul-24 10:33N 54°51' E 018°27'8 8.2
2014-Jul-24 09:33N 54°54' E 018°14'9 8.7
2014-Jul-24 08:33N 54°57' E 017°59'9 8.9
2014-Jul-24 07:33N 54°59' E 017°44'9 9.0
2014-Jul-24 06:33N 55°01' E 017°29'9 9.0
2014-Jul-24 05:33N 55°03' E 017°13'9 9.2
2014-Jul-24 04:33N 55°06' E 016°58'9 9.3
2014-Jul-24 03:33N 55°08' E 016°42'9 9.3
2014-Jul-24 02:33N 55°10' E 016°26'9 9.2
2014-Jul-24 01:33N 55°13' E 016°11'9 9.1
2014-Jul-24 00:33N 55°15' E 015°55'9 9.0
2014-Jul-23 23:33N 55°17' E 015°40'9 9.0
2014-Jul-23 22:33N 55°19' E 015°25'9 9.0
2014-Jul-23 21:33N 55°22' E 015°09'9 9.0
2014-Jul-23 20:33N 55°23' E 014°54'9 8.7
2014-Jul-23 19:33N 55°22' E 014°38'9 9.3
2014-Jul-23 18:33N 55°15' E 014°27'9 8.7
2014-Jul-23 17:33N 55°10' E 014°15'18 8.9
2014-Jul-23 15:33N 55°12' E 013°44'9 8.7
2014-Jul-23 14:33N 55°13' E 013°29'9 8.9
2014-Jul-23 13:33N 55°14' E 013°13'9 8.8
2014-Jul-23 12:33N 55°15' E 012°58'9 8.7
2014-Jul-23 11:33N 55°17' E 012°43'7 7.4
2014-Jul-23 10:33N 55°24' E 012°39'9 9.1
2014-Jul-23 09:33N 55°33' E 012°42'9 9.3
2014-Jul-23 08:33N 55°42' E 012°41'9 8.8
2014-Jul-23 07:33N 55°51' E 012°39'9 9.0
2014-Jul-23 06:33N 55°60' E 012°38'8 7.6
2014-Jul-23 05:33N 56°07' E 012°32'9 9.3
2014-Jul-23 04:33N 56°12' E 012°18'10 9.8
2014-Jul-23 03:33N 56°18' E 012°04'9 9.1
2014-Jul-23 02:32N 56°27' E 011°60'8 7.8
2014-Jul-23 01:31N 56°35' E 011°56'8 8.2
2014-Jul-23 00:32N 56°42' E 011°53'8 8.3
2014-Jul-22 23:33N 56°50' E 011°49'9 9.0
2014-Jul-22 22:33N 56°59' E 011°43'9 8.5
2014-Jul-22 21:33N 57°07' E 011°38'8 8.2
2014-Jul-22 20:33N 57°14' E 011°33'9 8.6
2014-Jul-22 19:33N 57°23' E 011°28'8 8.4
2014-Jul-22 18:33N 57°30' E 011°20'9 8.9
2014-Jul-22 17:33N 57°36' E 011°08'9 9.4
2014-Jul-22 16:33N 57°42' E 010°55'9 8.9
2014-Jul-22 15:33N 57°47' E 010°41'9 9.3
2014-Jul-22 14:33N 57°46' E 010°23'9 9.3
2014-Jul-22 13:33N 57°46' E 010°06'10 9.7
2014-Jul-22 12:32N 57°45' E 009°48'12 9.4
2014-Jul-22 11:14N 57°45' E 009°25'26 9.7
2014-Jul-22 08:33N 57°43' E 008°36'9 8.8
2014-Jul-22 07:29N 57°43' E 008°18'10 8.6
2014-Jul-22 06:20N 57°42' E 007°60'7 8.9
2014-Jul-22 05:30N 57°42' E 007°46'8 8.7
2014-Jul-22 04:33N 57°42' E 007°30'52 8.3
2014-Jul-21 22:14N 58°00' E 005°58'6 8.9
2014-Jul-21 21:33N 58°04' E 005°49'10 9.5
2014-Jul-21 20:32N 58°11' E 005°36'2 9.6
2014-Jul-21 20:18N 58°12' E 005°33'7 9.6
2014-Jul-21 19:32N 58°17' E 005°22'28 8.8
2014-Jul-21 16:19N 58°42' E 004°58'7 8.4
2014-Jul-21 15:30N 58°49' E 004°54'8 8.7
2014-Jul-21 14:33N 58°56' E 004°47'9 8.7
2014-Jul-21 13:33N 59°04' E 004°41'8 7.9
2014-Jul-21 12:33N 59°12' E 004°37'  

Dump ship's entire track history